Time;durP1;ratioP1;P1;durP2;ratioP2;P2;SDS_P1;SDS_P2;PMS_P1;PMS_P2;Temp;Humidity;BMP_temperature;BMP_pressure;BME280_temperature;BME280_humidity;BME280_pressure;Samples;Min_cycle;Max_cycle;Signal;HPM_P1;HPM_P2
2022/08/02 00:00:59;;;;;;;1.47;1.23;;;19.00;98.00;;;;;;5073762;28;20466;-71
2022/08/02 00:03:26;;;;;;;1.60;1.20;;;19.00;98.00;;;;;;5073795;28;20472;-71
2022/08/02 00:05:55;;;;;;;1.50;1.30;;;19.10;98.00;;;;;;5073770;28;20946;-71
2022/08/02 00:08:22;;;;;;;1.80;1.13;;;19.20;98.00;;;;;;5073452;28;20457;-71
2022/08/02 00:10:50;;;;;;;1.50;1.10;;;19.20;98.00;;;;;;5073303;28;20487;-71
2022/08/02 00:13:25;;;;;;;1.20;1.10;;;19.10;98.00;;;;;;5073546;28;20452;-71
2022/08/02 00:15:52;;;;;;;1.30;1.30;;;19.00;98.00;;;;;;5073309;28;20539;-71
2022/08/02 00:18:21;;;;;;;1.30;1.20;;;18.80;98.00;;;;;;5073267;28;20460;-71
2022/08/02 00:20:48;;;;;;;1.40;1.30;;;18.70;98.00;;;;;;5073293;28;20479;-71
2022/08/02 00:23:17;;;;;;;1.30;1.20;;;18.60;98.00;;;;;;5073039;28;20457;-71
2022/08/02 00:25:44;;;;;;;1.80;1.30;;;18.50;98.00;;;;;;5072770;28;20453;-71
2022/08/02 00:28:11;;;;;;;1.83;1.20;;;18.50;98.00;;;;;;5073064;28;20471;-72
2022/08/02 00:30:38;;;;;;;1.37;1.20;;;18.50;98.00;;;;;;5073387;28;20481;-71
2022/08/02 00:33:07;;;;;;;2.07;1.40;;;18.60;98.00;;;;;;5055164;28;20461;-71
2022/08/02 00:35:37;;;;;;;1.60;1.30;;;18.60;98.00;;;;;;5073218;28;20547;-71
2022/08/02 00:38:05;;;;;;;1.20;1.10;;;18.50;98.00;;;;;;5072857;28;20460;-71
2022/08/02 00:40:34;;;;;;;1.80;1.30;;;18.50;98.00;;;;;;5055417;28;20476;-71
2022/08/02 00:43:03;;;;;;;1.73;1.20;;;18.70;98.00;;;;;;5072790;28;20453;-71
2022/08/02 00:45:30;;;;;;;1.20;1.10;;;18.70;98.00;;;;;;5072842;28;20504;-71
2022/08/02 00:47:58;;;;;;;1.40;1.30;;;18.70;98.00;;;;;;5072555;28;20555;-70
2022/08/02 00:50:27;;;;;;;1.20;1.17;;;18.70;98.00;;;;;;5072465;28;20473;-71
2022/08/02 00:52:55;;;;;;;1.30;1.27;;;18.90;98.00;;;;;;5072734;28;20484;-71
2022/08/02 00:55:27;;;;;;;2.03;1.53;;;18.70;98.00;;;;;;5055197;28;20433;-70
2022/08/02 00:57:55;;;;;;;1.40;1.30;;;18.70;98.00;;;;;;5072577;28;20544;-71
2022/08/02 01:00:23;;;;;;;1.60;1.40;;;18.60;98.00;;;;;;5072440;28;20540;-71
2022/08/02 01:02:51;;;;;;;1.60;1.10;;;18.60;98.00;;;;;;5072298;28;20488;-71
2022/08/02 01:05:18;;;;;;;1.57;1.20;;;18.40;98.00;;;;;;5072222;28;20954;-71
2022/08/02 01:07:45;;;;;;;1.40;1.40;;;18.20;98.00;;;;;;5072065;28;20822;-71
2022/08/02 01:10:12;;;;;;;1.20;1.00;;;18.30;98.00;;;;;;5072297;28;20816;-71
2022/08/02 01:12:40;;;;;;;2.03;1.47;;;18.30;98.00;;;;;;5054880;28;20452;-71
2022/08/02 01:15:11;;;;;;;2.23;1.60;;;18.30;98.00;;;;;;5072315;28;20448;-71
2022/08/02 01:17:47;;;;;;;1.20;1.10;;;18.30;98.00;;;;;;5072321;28;20453;-71
2022/08/02 01:20:35;;;;;;;1.73;1.37;;;18.30;98.00;;;;;;5055331;28;20460;-71
2022/08/02 01:23:14;;;;;;;1.40;1.30;;;18.40;98.00;;;;;;5072378;28;20452;-71
2022/08/02 01:25:59;;;;;;;1.37;1.13;;;18.40;98.00;;;;;;5072128;28;21196;-71
2022/08/02 01:28:34;;;;;;;1.57;1.27;;;18.50;98.00;;;;;;5072310;28;20468;-71
2022/08/02 01:31:08;;;;;;;1.60;1.30;;;18.50;98.00;;;;;;5072091;28;20480;-71
2022/08/02 01:33:41;;;;;;;1.30;1.17;;;18.40;98.00;;;;;;5072055;28;20453;-71
2022/08/02 01:36:12;;;;;;;1.67;1.30;;;18.40;98.00;;;;;;5072115;28;20449;-71
2022/08/02 01:38:44;;;;;;;1.57;1.43;;;18.40;98.00;;;;;;5071779;28;20469;-71
2022/08/02 01:41:17;;;;;;;2.37;1.30;;;18.10;98.00;;;;;;5072175;28;20464;-71
2022/08/02 01:43:48;;;;;;;1.67;1.20;;;18.10;98.00;;;;;;5071890;28;20460;-71
2022/08/02 01:46:17;;;;;;;1.57;1.30;;;18.00;98.00;;;;;;5072045;28;20457;-71
2022/08/02 01:48:47;;;;;;;1.20;1.20;;;18.10;98.00;;;;;;5071717;28;20453;-71
2022/08/02 01:51:17;;;;;;;1.87;1.57;;;18.20;98.00;;;;;;5071637;28;20979;-71
2022/08/02 01:53:48;;;;;;;2.03;1.50;;;18.10;98.00;;;;;;5071726;28;20970;-71
2022/08/02 01:56:16;;;;;;;1.40;1.30;;;18.00;98.00;;;;;;5071688;28;20969;-71
2022/08/02 01:58:45;;;;;;;1.33;1.27;;;18.10;98.00;;;;;;5071838;28;20461;-71
2022/08/02 02:01:16;;;;;;;1.30;1.20;;;18.10;98.00;;;;;;5071825;28;20482;-71
2022/08/02 02:03:45;;;;;;;1.60;1.47;;;18.00;98.00;;;;;;5054121;28;20445;-71
2022/08/02 02:06:13;;;;;;;1.97;1.37;;;17.90;98.00;;;;;;5071615;28;20491;-72
2022/08/02 02:08:43;;;;;;;1.33;1.27;;;17.90;98.00;;;;;;5071527;28;20459;-71
2022/08/02 02:11:10;;;;;;;1.40;1.30;;;17.80;98.00;;;;;;5071650;28;20484;-71
2022/08/02 02:13:41;;;;;;;1.30;1.30;;;17.80;98.00;;;;;;5053874;28;20453;-71
2022/08/02 02:16:09;;;;;;;1.37;1.33;;;17.90;98.00;;;;;;5071569;28;20471;-71
2022/08/02 02:18:42;;;;;;;1.30;1.10;;;17.90;98.00;;;;;;5073451;28;20479;-71
2022/08/02 02:21:10;;;;;;;1.40;1.30;;;17.90;98.00;;;;;;5075680;28;20471;-71
2022/08/02 02:23:37;;;;;;;2.30;1.30;;;17.90;98.00;;;;;;5075714;28;20547;-71
2022/08/02 02:26:06;;;;;;;2.53;1.40;;;17.80;98.00;;;;;;5075789;28;20476;-71
2022/08/02 02:28:37;;;;;;;1.47;1.10;;;17.90;98.00;;;;;;5075647;28;20467;-71
2022/08/02 02:31:07;;;;;;;2.03;1.40;;;17.90;98.00;;;;;;5057779;28;20484;-71
2022/08/02 02:33:39;;;;;;;1.70;1.53;;;17.80;98.00;;;;;;5075523;28;20448;-71
2022/08/02 02:36:09;;;;;;;1.90;1.50;;;18.00;98.00;;;;;;5075332;28;20463;-71
2022/08/02 02:38:36;;;;;;;1.50;1.37;;;18.10;98.00;;;;;;5075189;28;20456;-71
2022/08/02 02:41:06;;;;;;;1.77;1.37;;;18.00;98.00;;;;;;5075324;28;20456;-71
2022/08/02 02:43:35;;;;;;;1.80;1.40;;;18.10;98.00;;;;;;5075020;28;20480;-71
2022/08/02 02:46:05;;;;;;;2.17;1.50;;;18.10;98.00;;;;;;5074962;28;20465;-71
2022/08/02 02:48:34;;;;;;;1.40;1.30;;;18.00;98.00;;;;;;5074638;28;20457;-71
2022/08/02 02:51:03;;;;;;;1.50;1.37;;;17.90;98.00;;;;;;5074787;28;20881;-71
2022/08/02 02:53:33;;;;;;;1.90;1.40;;;17.90;98.00;;;;;;5074534;28;20465;-71
2022/08/02 02:56:01;;;;;;;1.60;1.37;;;17.80;98.00;;;;;;5074871;28;20474;-71
2022/08/02 02:58:29;;;;;;;1.60;1.37;;;17.80;98.00;;;;;;5074735;28;20460;-71
2022/08/02 03:03:44;;;;;;;1.40;1.37;;;17.90;98.00;;;;;;5074618;28;20464;-71
2022/08/02 03:06:11;;;;;;;1.70;1.20;;;17.90;98.00;;;;;;5074407;28;20821;-72
2022/08/02 03:08:40;;;;;;;1.77;1.40;;;17.90;98.00;;;;;;5074349;28;20506;-71
2022/08/02 03:11:09;;;;;;;1.50;1.30;;;17.90;98.00;;;;;;5074705;28;20480;-71
2022/08/02 03:13:38;;;;;;;1.60;1.40;;;17.90;98.00;;;;;;5074400;28;20464;-71
2022/08/02 03:16:05;;;;;;;1.93;1.80;;;17.90;98.00;;;;;;5040125;28;20457;-71
2022/08/02 03:18:34;;;;;;;1.87;1.30;;;17.70;98.00;;;;;;5074604;28;20461;-71
2022/08/02 03:21:03;;;;;;;1.40;1.30;;;17.70;98.00;;;;;;5074369;28;20460;-71
2022/08/02 03:23:30;;;;;;;1.97;1.60;;;17.60;98.00;;;;;;5074557;28;20463;-71
2022/08/02 03:26:00;;;;;;;1.70;1.50;;;17.50;98.00;;;;;;5074308;28;20464;-71
2022/08/02 03:28:28;;;;;;;1.50;1.40;;;17.60;98.00;;;;;;5056365;28;20805;-71
2022/08/02 03:30:58;;;;;;;1.50;1.37;;;17.50;98.00;;;;;;5074286;28;20484;-71
2022/08/02 03:33:26;;;;;;;2.00;1.37;;;17.50;98.00;;;;;;5074440;28;20463;-71
2022/08/02 03:35:55;;;;;;;1.90;1.47;;;17.50;98.00;;;;;;5074581;28;20453;-71
2022/08/02 03:38:24;;;;;;;1.40;1.30;;;17.70;98.00;;;;;;5073995;28;20480;-71
2022/08/02 03:40:51;;;;;;;1.60;1.33;;;17.70;98.00;;;;;;5074130;28;20464;-71
2022/08/02 03:43:21;;;;;;;1.60;1.40;;;17.80;98.00;;;;;;5073871;28;20943;-71
2022/08/02 03:45:50;;;;;;;3.20;2.10;;;18.00;98.00;;;;;;5073946;28;20452;-71
2022/08/02 03:48:18;;;;;;;1.50;1.40;;;18.10;98.00;;;;;;5073915;28;20484;-71
2022/08/02 03:50:47;;;;;;;2.13;1.50;;;18.00;98.00;;;;;;5073568;28;20480;-71
2022/08/02 03:53:16;;;;;;;1.97;1.80;;;18.00;98.00;;;;;;5056198;28;20457;-71
2022/08/02 03:55:44;;;;;;;1.40;1.10;;;18.00;98.00;;;;;;5056056;28;20461;-71
2022/08/02 03:58:19;;;;;;;2.33;1.70;;;18.20;98.00;;;;;;5056235;28;20472;-71
2022/08/02 04:00:47;;;;;;;1.80;1.50;;;18.10;98.00;;;;;;5073336;28;20973;-71
2022/08/02 04:03:14;;;;;;;1.63;1.43;;;18.00;98.00;;;;;;5073597;28;20449;-70
2022/08/02 04:05:42;;;;;;;2.10;1.43;;;18.00;98.00;;;;;;5073280;28;20453;-71
2022/08/02 04:08:09;;;;;;;2.13;1.40;;;17.80;98.00;;;;;;5073311;28;20947;-71
2022/08/02 04:13:19;;;;;;;1.50;1.20;;;17.40;98.00;;;;;;5072255;28;20481;-71
2022/08/02 04:15:48;;;;;;;1.60;1.40;;;17.40;98.00;;;;;;5073135;28;20937;-70
2022/08/02 04:18:17;;;;;;;1.47;1.27;;;17.20;98.00;;;;;;5072478;28;20484;-71
2022/08/02 04:20:48;;;;;;;1.83;1.40;;;17.10;98.00;;;;;;5073198;28;20453;-71
2022/08/02 04:23:17;;;;;;;1.73;1.27;;;17.00;98.00;;;;;;5073299;28;20464;-71
2022/08/02 04:25:46;;;;;;;1.53;1.37;;;17.00;98.00;;;;;;5073209;28;20461;-71
2022/08/02 04:28:16;;;;;;;2.13;1.40;;;17.10;98.00;;;;;;5073254;28;20974;-71
2022/08/02 04:30:45;;;;;;;4.33;1.70;;;17.00;98.00;;;;;;5073118;28;20445;-71
2022/08/02 04:33:13;;;;;;;1.60;1.40;;;17.00;98.00;;;;;;5073235;28;20457;-71
2022/08/02 04:35:40;;;;;;;1.70;1.60;;;17.10;98.00;;;;;;5073044;28;20449;-71
2022/08/02 04:38:09;;;;;;;7.63;1.50;;;17.20;98.00;;;;;;5073382;28;20456;-71
2022/08/02 04:40:37;;;;;;;1.87;1.40;;;17.30;98.00;;;;;;5071944;28;20453;-71
2022/08/02 04:43:04;;;;;;;1.77;1.40;;;17.30;98.00;;;;;;5072810;28;20510;-71
2022/08/02 04:45:32;;;;;;;2.40;1.60;;;17.20;98.00;;;;;;5072384;28;20449;-71
2022/08/02 04:48:00;;;;;;;1.67;1.50;;;17.30;98.00;;;;;;5072904;28;20794;-71
2022/08/02 04:50:27;;;;;;;1.40;1.30;;;17.40;98.00;;;;;;5072368;28;20511;-71
2022/08/02 04:52:54;;;;;;;1.73;1.60;;;17.40;98.00;;;;;;5054789;28;20982;-71
2022/08/02 04:55:27;;;;;;;1.57;1.43;;;17.40;98.00;;;;;;5072389;28;20461;-71
2022/08/02 04:57:57;;;;;;;1.47;1.23;;;17.50;98.00;;;;;;5070455;28;20491;-71
2022/08/02 05:00:25;;;;;;;1.80;1.43;;;17.70;98.00;;;;;;5072446;28;20460;-71
2022/08/02 05:02:52;;;;;;;2.57;1.50;;;17.80;98.00;;;;;;5072271;28;20464;-71
2022/08/02 05:05:21;;;;;;;1.43;1.40;;;17.80;98.00;;;;;;5072176;28;20453;-71
2022/08/02 05:07:48;;;;;;;1.63;1.33;;;17.70;98.00;;;;;;5072099;28;20475;-71
2022/08/02 05:10:15;;;;;;;1.60;1.30;;;17.70;98.00;;;;;;5072212;28;20453;-71
2022/08/02 05:12:43;;;;;;;1.57;1.50;;;17.70;98.00;;;;;;5072209;28;20481;-71
2022/08/02 05:15:15;;;;;;;1.90;1.50;;;17.80;98.00;;;;;;5054242;28;20459;-71
2022/08/02 05:17:43;;;;;;;1.80;1.60;;;17.90;98.00;;;;;;5072138;28;20499;-71
2022/08/02 05:20:12;;;;;;;1.77;1.57;;;17.80;98.00;;;;;;5072223;28;20445;-71
2022/08/02 05:22:40;;;;;;;1.93;1.30;;;17.90;98.00;;;;;;5072097;28;20485;-71
2022/08/02 05:25:09;;;;;;;1.50;1.40;;;18.00;98.00;;;;;;5072259;28;20536;-71
2022/08/02 05:27:36;;;;;;;2.00;1.87;;;18.30;98.00;;;;;;5054230;28;20460;-71
2022/08/02 05:30:04;;;;;;;2.60;1.90;;;18.60;98.00;;;;;;5072040;28;20464;-71
2022/08/02 05:32:31;;;;;;;1.50;1.33;;;18.80;98.00;;;;;;5071542;28;20529;-71
2022/08/02 05:35:01;;;;;;;1.30;1.30;;;19.10;98.00;;;;;;5071722;28;20475;-71
2022/08/02 05:37:28;;;;;;;1.97;1.50;;;19.10;98.00;;;;;;5072398;28;20485;-71
2022/08/02 05:39:57;;;;;;;1.87;1.57;;;19.20;98.00;;;;;;5072259;28;20457;-70
2022/08/02 05:42:24;;;;;;;1.70;1.60;;;19.30;98.00;;;;;;5071960;28;20468;-71
2022/08/02 05:44:51;;;;;;;2.53;1.77;;;19.30;98.00;;;;;;5071663;28;20463;-71
2022/08/02 05:47:18;;;;;;;1.90;1.70;;;19.30;98.00;;;;;;5071211;28;20459;-70
2022/08/02 05:49:45;;;;;;;2.10;1.50;;;19.30;98.00;;;;;;5071125;28;20464;-71
2022/08/02 05:52:16;;;;;;;1.90;1.50;;;19.40;98.00;;;;;;5073172;28;20492;-71
2022/08/02 05:54:50;;;;;;;2.57;1.67;;;19.40;98.00;;;;;;5077735;28;20494;-71
2022/08/02 05:57:30;;;;;;;1.90;1.67;;;19.30;98.00;;;;;;5060041;28;20548;-71
2022/08/02 06:00:09;;;;;;;2.17;1.70;;;19.20;98.00;;;;;;5060419;28;20460;-71
2022/08/02 06:02:47;;;;;;;2.07;1.47;;;19.10;98.00;;;;;;5077622;28;20499;-71
2022/08/02 06:05:17;;;;;;;1.90;1.50;;;19.20;98.00;;;;;;5077682;28;20460;-71
2022/08/02 06:07:45;;;;;;;1.97;1.63;;;19.30;98.00;;;;;;5077226;28;20460;-71
2022/08/02 06:10:14;;;;;;;1.63;1.60;;;19.30;98.00;;;;;;5077538;28;20844;-71
2022/08/02 06:12:48;;;;;;;2.07;1.83;;;19.40;98.00;;;;;;5077351;28;21178;-79
2022/08/02 06:15:17;;;;;;;3.20;2.23;;;19.60;98.00;;;;;;5077555;28;20464;-79
2022/08/02 06:17:45;;;;;;;2.20;2.03;;;19.70;98.00;;;;;;5077430;28;20483;-79
2022/08/02 06:20:13;;;;;;;3.80;2.00;;;19.80;98.00;;;;;;5077759;28;20455;-78
2022/08/02 06:22:42;;;;;;;3.40;2.27;;;19.80;98.00;;;;;;5077408;28;20459;-78
2022/08/02 06:25:10;;;;;;;2.73;1.90;;;19.80;98.00;;;;;;5077456;28;20520;-79
2022/08/02 06:27:38;;;;;;;2.03;1.60;;;20.00;98.00;;;;;;5077253;28;20479;-78
2022/08/02 06:30:08;;;;;;;3.10;1.80;;;20.10;98.00;;;;;;5077515;28;20804;-78
2022/08/02 06:32:35;;;;;;;1.60;1.50;;;20.10;98.00;;;;;;5076905;28;20488;-73
2022/08/02 06:35:04;;;;;;;1.83;1.80;;;20.20;98.00;;;;;;5077270;28;20470;-79
2022/08/02 06:37:37;;;;;;;3.10;2.20;;;20.40;98.00;;;;;;5077365;28;20456;-78
2022/08/02 06:40:18;;;;;;;1.67;1.60;;;20.50;98.00;;;;;;5059922;28;20875;-79
2022/08/02 06:42:52;;;;;;;2.17;1.90;;;20.60;98.00;;;;;;5077281;28;20453;-80
2022/08/02 06:45:21;;;;;;;1.80;1.60;;;20.60;98.00;;;;;;5077566;28;20479;-80
2022/08/02 06:47:48;;;;;;;1.90;1.57;;;20.50;98.00;;;;;;5077421;28;20467;-78
2022/08/02 06:50:15;;;;;;;1.80;1.60;;;20.50;98.00;;;;;;5059091;28;20460;-79
2022/08/02 06:52:43;;;;;;;1.60;1.40;;;20.60;98.00;;;;;;5076865;28;20491;-80
2022/08/02 06:55:10;;;;;;;3.10;1.70;;;20.70;98.00;;;;;;5077422;28;20836;-79
2022/08/02 06:57:38;;;;;;;2.13;1.67;;;20.80;98.00;;;;;;5077026;28;20460;-80
2022/08/02 07:00:08;;;;;;;2.33;2.10;;;20.80;98.00;;;;;;5076823;28;20955;-79
2022/08/02 07:02:38;;;;;;;1.77;1.63;;;21.00;98.00;;;;;;5076950;28;20965;-79
2022/08/02 07:05:08;;;;;;;3.20;2.37;;;21.00;98.00;;;;;;5073543;28;20468;-78
2022/08/02 07:07:36;;;;;;;2.93;2.17;;;21.10;98.00;;;;;;5056170;28;20465;-77
2022/08/02 07:10:03;;;;;;;2.57;2.23;;;21.20;98.00;;;;;;5073674;28;20461;-77
2022/08/02 07:12:32;;;;;;;2.37;1.90;;;21.30;98.00;;;;;;5073783;28;20524;-78
2022/08/02 07:14:59;;;;;;;2.67;1.87;;;21.30;98.00;;;;;;5073614;28;20974;-77
2022/08/02 07:17:27;;;;;;;3.83;2.07;;;21.30;98.00;;;;;;5073747;28;20452;-77
2022/08/02 07:19:55;;;;;;;3.20;2.27;;;21.40;98.00;;;;;;5056158;28;20472;-78
2022/08/02 07:22:23;;;;;;;1.67;1.57;;;21.50;98.00;;;;;;5071308;28;20820;-77
2022/08/02 07:24:50;;;;;;;2.73;1.90;;;21.60;98.00;;;;;;5070663;28;20873;-79
2022/08/02 07:27:18;;;;;;;2.57;2.13;;;21.70;98.00;;;;;;5070814;28;20830;-79
2022/08/02 07:29:45;;;;;;;2.63;2.00;;;21.70;98.00;;;;;;5070683;28;20465;-79
2022/08/02 07:32:12;;;;;;;3.23;2.47;;;21.80;98.00;;;;;;5070726;28;20493;-79
2022/08/02 07:34:39;;;;;;;2.60;2.17;;;21.70;98.00;;;;;;5070474;28;20449;-78
2022/08/02 07:37:08;;;;;;;3.17;1.93;;;21.70;98.00;;;;;;5070777;28;20457;-78
2022/08/02 07:39:36;;;;;;;2.40;1.83;;;21.70;98.00;;;;;;5070357;28;20461;-79
2022/08/02 07:42:03;;;;;;;2.33;1.80;;;21.80;98.00;;;;;;5053006;28;20465;-79
2022/08/02 07:44:33;;;;;;;3.47;2.13;;;21.90;98.00;;;;;;5070494;28;20468;-76
2022/08/02 07:47:01;;;;;;;5.93;2.80;;;22.00;98.00;;;;;;5070679;28;20959;-75
2022/08/02 07:49:28;;;;;;;3.60;2.30;;;22.00;98.00;;;;;;5068064;28;21061;-75
2022/08/02 07:51:55;;;;;;;3.70;2.50;;;22.00;98.00;;;;;;5070384;28;20862;-76
2022/08/02 07:54:24;;;;;;;3.77;2.37;;;22.10;98.00;;;;;;5070463;28;20487;-75
2022/08/02 07:56:53;;;;;;;2.80;2.10;;;22.20;98.00;;;;;;5070313;28;20472;-77
2022/08/02 07:59:20;;;;;;;3.30;2.37;;;22.20;98.00;;;;;;5070212;28;20454;-77
2022/08/02 08:01:48;;;;;;;4.23;2.77;;;22.30;98.00;;;;;;5070056;28;20457;-76
2022/08/02 08:04:16;;;;;;;3.40;2.53;;;22.40;98.00;;;;;;5070248;28;20448;-78
2022/08/02 08:06:43;;;;;;;3.37;2.43;;;22.50;98.00;;;;;;5069950;28;20460;-71
2022/08/02 08:09:10;;;;;;;3.57;2.57;;;22.60;98.00;;;;;;5069739;28;20963;-71
2022/08/02 08:11:39;;;;;;;5.57;2.70;;;22.60;98.00;;;;;;5069668;28;20460;-75
2022/08/02 08:14:06;;;;;;;4.77;2.40;;;22.70;98.00;;;;;;5072650;28;20480;-74
2022/08/02 08:16:35;;;;;;;6.00;2.90;;;22.70;98.00;;;;;;5071405;28;20838;-73
2022/08/02 08:19:02;;;;;;;3.87;2.50;;;22.90;98.00;;;;;;5072629;28;20449;-73
2022/08/02 08:21:30;;;;;;;4.13;2.90;;;23.00;98.00;;;;;;5072379;28;20923;-75
2022/08/02 08:23:57;;;;;;;3.23;2.20;;;23.00;98.00;;;;;;5072396;28;20452;-73
2022/08/02 08:26:25;;;;;;;2.83;2.00;;;23.10;98.00;;;;;;5072585;28;21026;-73
2022/08/02 08:28:54;;;;;;;3.63;2.50;;;23.20;98.00;;;;;;5072414;28;20469;-72
2022/08/02 08:31:21;;;;;;;3.20;2.47;;;23.30;98.00;;;;;;5072259;28;20453;-75
2022/08/02 08:33:48;;;;;;;4.83;2.83;;;23.40;98.00;;;;;;5072223;28;20489;-76
2022/08/02 08:36:15;;;;;;;7.27;3.37;;;23.40;98.00;;;;;;5038087;28;20460;-72
2022/08/02 08:38:42;;;;;;;5.10;2.80;;;23.60;98.00;;;;;;5054401;28;20545;-72
2022/08/02 08:41:09;;;;;;;3.23;2.30;;;23.60;98.00;;;;;;5072152;28;20461;-76
2022/08/02 08:43:40;;;;;;;3.10;2.13;;;23.80;98.00;;;;;;5072510;28;20468;-73
2022/08/02 08:46:10;;;;;;;4.70;3.13;;;23.80;98.00;;;;;;5072551;28;20878;-74
2022/08/02 08:48:43;;;;;;;4.57;2.90;;;23.80;98.00;;;;;;5072177;28;20467;-76
2022/08/02 08:51:14;;;;;;;2.23;1.90;;;23.80;98.00;;;;;;5072511;28;20457;-78
2022/08/02 08:53:44;;;;;;;3.50;2.33;;;23.90;98.00;;;;;;5072230;28;20507;-76
2022/08/02 08:56:12;;;;;;;5.07;3.07;;;24.00;98.00;;;;;;5072132;28;20457;-75
2022/08/02 08:58:40;;;;;;;3.67;2.50;;;24.10;98.00;;;;;;5071948;28;20457;-76
2022/08/02 09:01:11;;;;;;;4.40;3.10;;;24.30;98.00;;;;;;5072021;28;20458;-76
2022/08/02 09:03:38;;;;;;;5.63;3.80;;;24.40;98.00;;;;;;5072007;28;20465;-74
2022/08/02 09:06:05;;;;;;;3.90;2.50;;;24.60;98.00;;;;;;5072028;28;20452;-76
2022/08/02 09:08:32;;;;;;;7.43;3.30;;;24.70;98.00;;;;;;5072194;28;20868;-74
2022/08/02 09:11:00;;;;;;;4.47;3.17;;;24.90;98.00;;;;;;5071947;28;20476;-76
2022/08/02 09:13:29;;;;;;;4.63;2.83;;;24.90;98.00;;;;;;5072154;28;20530;-73
2022/08/02 09:15:58;;;;;;;5.00;3.00;;;24.90;98.00;;;;;;5071666;28;20889;-77
2022/08/02 09:18:35;;;;;;;4.00;2.60;;;25.00;98.00;;;;;;5071719;28;20465;-75
2022/08/02 09:21:05;;;;;;;4.00;2.80;;;25.20;98.00;;;;;;5071952;28;20460;-77
2022/08/02 09:23:36;;;;;;;4.23;2.50;;;25.20;98.00;;;;;;5072129;28;20487;-78
2022/08/02 09:26:05;;;;;;;5.27;3.00;;;25.20;98.00;;;;;;5071428;28;20455;-68
2022/08/02 09:28:33;;;;;;;4.57;2.90;;;25.30;98.00;;;;;;5071743;28;20452;-76
2022/08/02 09:31:05;;;;;;;4.87;2.60;;;25.60;98.00;;;;;;5072296;28;20453;-75
2022/08/02 09:33:35;;;;;;;4.10;2.70;;;25.80;98.00;;;;;;5072469;28;20495;-73
2022/08/02 09:36:07;;;;;;;4.73;3.00;;;26.00;98.00;;;;;;5072103;28;20449;-77
2022/08/02 09:38:35;;;;;;;3.43;2.70;;;26.10;98.00;;;;;;5055607;28;20480;-74
2022/08/02 09:41:03;;;;;;;3.93;2.90;;;26.20;98.00;;;;;;5072512;28;20465;-77
2022/08/02 09:43:39;;;;;;;4.47;2.67;;;26.40;98.00;;;;;;5072726;28;20469;-76
2022/08/02 09:46:13;;;;;;;3.93;2.37;;;26.50;98.00;;;;;;5072915;28;20475;-76
2022/08/02 09:48:53;;;;;;;3.03;2.60;;;26.60;98.00;;;;;;5072542;28;20456;-77
2022/08/02 09:51:24;;;;;;;5.63;3.23;;;26.90;98.00;;;;;;5071906;28;20452;-77
2022/08/02 09:53:53;;;;;;;5.83;3.00;;;27.00;98.00;;;;;;5071757;28;20491;-75
2022/08/02 09:56:23;;;;;;;4.70;2.60;;;27.10;97.60;;;;;;5071520;28;20492;-75
2022/08/02 09:58:53;;;;;;;3.70;2.40;;;27.20;98.00;;;;;;5071027;28;20464;-75
2022/08/02 10:01:21;;;;;;;3.57;2.60;;;27.40;98.00;;;;;;5071317;28;20464;-75
2022/08/02 10:03:58;;;;;;;5.10;2.90;;;27.50;96.60;;;;;;5053156;28;20457;-69
2022/08/02 10:06:26;;;;;;;2.70;2.20;;;27.60;95.40;;;;;;5072883;28;20464;-69
2022/08/02 10:08:54;;;;;;;3.10;2.40;;;27.70;97.50;;;;;;5070798;28;20449;-69
2022/08/02 10:11:22;;;;;;;3.63;2.20;;;27.90;95.40;;;;;;5052938;28;20496;-71
2022/08/02 10:13:50;;;;;;;4.20;3.20;;;28.00;95.50;;;;;;5070727;28;20569;-72
2022/08/02 10:16:21;;;;;;;8.03;2.83;;;28.20;94.20;;;;;;5070578;28;20453;-72
2022/08/02 10:18:50;;;;;;;3.67;2.70;;;28.10;92.90;;;;;;5071260;28;20488;-71
2022/08/02 10:21:25;;;;;;;3.77;2.70;;;28.20;92.80;;;;;;5071897;28;20449;-71
2022/08/02 10:23:55;;;;;;;3.00;2.50;;;28.30;92.10;;;;;;5070735;28;20531;-72
2022/08/02 10:26:22;;;;;;;3.65;2.40;;;28.30;90.70;;;;;;5052269;28;20805;-70
2022/08/02 10:28:50;;;;;;;4.03;2.67;;;28.30;91.10;;;;;;5052894;28;20207;-69
2022/08/02 10:31:22;;;;;;;3.67;2.63;;;28.50;91.80;;;;;;5070778;28;20473;-69
2022/08/02 10:33:52;;;;;;;2.80;2.20;;;28.70;89.60;;;;;;5070655;28;20575;-67
2022/08/02 10:36:25;;;;;;;3.93;2.70;;;28.80;89.20;;;;;;5070707;28;20694;-67
2022/08/02 10:38:57;;;;;;;3.20;2.20;;;29.00;87.20;;;;;;5071195;28;20448;-68
2022/08/02 10:41:46;;;;;;;1.97;1.90;;;28.90;87.50;;;;;;5074371;28;20456;-67
2022/08/02 10:44:24;;;;;;;3.13;2.00;;;29.00;88.00;;;;;;5074753;28;20461;-67
2022/08/02 10:46:52;;;;;;;2.70;2.23;;;29.10;87.70;;;;;;5074292;28;20453;-69
2022/08/02 10:49:20;;;;;;;3.43;2.10;;;29.30;86.70;;;;;;5074676;28;20959;-70
2022/08/02 10:52:14;;;;;;;3.33;2.30;;;29.40;85.00;;;;;;5074111;28;20951;-69
2022/08/02 10:54:47;;;;;;;3.40;2.43;;;29.50;85.40;;;;;;5056425;28;20488;-69
2022/08/02 10:57:17;;;;;;;3.23;2.30;;;29.50;86.60;;;;;;5075295;28;20452;-67
2022/08/02 10:59:44;;;;;;;3.10;2.17;;;29.60;86.30;;;;;;5074270;28;20458;-69
2022/08/02 11:02:12;;;;;;;3.20;2.20;;;29.70;83.90;;;;;;5074997;28;20453;-73
2022/08/02 11:05:02;;;;;;;2.23;1.90;;;29.50;81.90;;;;;;5074624;28;20459;-74
2022/08/02 11:07:39;;;;;;;2.83;1.90;;;28.80;83.30;;;;;;5073690;28;20464;-74
2022/08/02 11:10:36;;;;;;;2.37;2.03;;;28.30;85.90;;;;;;5074265;28;20460;-74
2022/08/02 11:13:15;;;;;;;3.53;2.40;;;28.10;87.80;;;;;;5074374;28;20503;-73
2022/08/02 11:15:51;;;;;;;2.40;2.10;;;28.30;88.50;;;;;;5073890;28;20942;-74
2022/08/02 11:18:19;;;;;;;2.70;2.10;;;28.30;88.60;;;;;;5056931;28;20951;-73
2022/08/02 11:20:46;;;;;;;2.77;2.30;;;28.20;86.40;;;;;;5073818;28;20448;-73
2022/08/02 11:23:38;;;;;;;3.63;2.23;;;28.30;87.20;;;;;;5073685;28;20453;-67
2022/08/02 11:26:43;;;;;;;2.40;2.00;;;28.40;84.90;;;;;;5073584;28;20857;-72
2022/08/02 11:29:11;;;;;;;3.00;2.20;;;28.70;86.50;;;;;;5073558;28;20514;-72
2022/08/02 11:31:40;;;;;;;5.37;2.37;;;29.10;85.40;;;;;;5073139;28;20522;-74
2022/08/02 11:34:08;;;;;;;2.77;2.00;;;29.40;84.90;;;;;;5073535;28;20488;-73
2022/08/02 11:36:44;;;;;;;3.83;2.60;;;29.70;84.10;;;;;;5073446;28;20449;-69
2022/08/02 11:39:13;;;;;;;2.50;2.17;;;30.10;82.40;;;;;;5073591;28;20463;-72
2022/08/02 11:41:41;;;;;;;3.27;2.40;;;29.90;83.10;;;;;;5073310;28;20453;-71
2022/08/02 11:44:08;;;;;;;2.43;2.17;;;29.80;84.20;;;;;;5072982;28;20532;-72
2022/08/02 11:46:35;;;;;;;3.70;2.40;;;29.40;86.80;;;;;;5073452;28;20449;-74
2022/08/02 11:49:17;;;;;;;3.20;2.30;;;29.40;85.50;;;;;;5073504;28;21024;-71
2022/08/02 11:52:05;;;;;;;2.53;2.00;;;29.70;85.70;;;;;;5072847;28;20456;-72
2022/08/02 11:54:36;;;;;;;3.23;2.30;;;30.10;84.40;;;;;;5072996;28;20507;-73
2022/08/02 11:57:14;;;;;;;3.10;2.30;;;30.50;83.50;;;;;;5073127;28;20457;-70
2022/08/02 11:59:43;;;;;;;2.90;2.20;;;30.90;81.70;;;;;;5073293;28;20460;-72
2022/08/02 12:02:10;;;;;;;3.07;2.30;;;31.20;82.20;;;;;;5072949;28;20977;-74
2022/08/02 12:04:39;;;;;;;3.23;2.53;;;31.40;80.90;;;;;;5072963;28;20536;-73
2022/08/02 12:07:07;;;;;;;2.43;2.20;;;31.50;79.40;;;;;;5070355;28;20959;-72
2022/08/02 12:09:36;;;;;;;4.03;2.27;;;31.10;79.70;;;;;;5070103;28;20779;-71
2022/08/02 12:12:05;;;;;;;3.67;2.50;;;30.70;82.40;;;;;;5070181;28;20469;-72
2022/08/02 12:14:32;;;;;;;3.03;2.40;;;31.00;82.80;;;;;;5069811;28;20491;-72
2022/08/02 12:19:45;;;;;;;2.40;2.03;;;31.10;79.50;;;;;;5061766;28;21085;-75
2022/08/02 12:22:22;;;;;;;3.00;2.13;;;31.30;82.00;;;;;;5061575;28;20457;-76
2022/08/02 12:24:53;;;;;;;2.70;2.23;;;31.50;80.60;;;;;;5069312;28;20529;-76
2022/08/02 12:27:32;;;;;;;2.90;2.37;;;31.80;81.00;;;;;;5069758;28;20526;-76
2022/08/02 12:30:02;;;;;;;2.70;2.13;;;32.10;78.00;;;;;;5072435;28;20469;-76
2022/08/02 12:32:37;;;;;;;5.10;2.13;;;32.30;78.60;;;;;;5072289;28;20549;-76
2022/08/02 12:35:08;;;;;;;2.93;2.13;;;32.60;76.00;;;;;;5055768;28;20484;-75
2022/08/02 12:37:36;;;;;;;2.97;2.20;;;32.60;77.00;;;;;;5072165;28;20468;-75
2022/08/02 12:40:22;;;;;;;3.87;2.60;;;32.70;76.50;;;;;;5071989;28;20564;-69
2022/08/02 12:42:50;;;;;;;3.37;2.67;;;32.90;76.50;;;;;;5072055;28;20457;-70
2022/08/02 12:45:17;;;;;;;3.20;2.30;;;32.90;75.10;;;;;;5072263;28;20452;-70
2022/08/02 12:47:47;;;;;;;2.63;2.20;;;33.00;74.40;;;;;;5072174;28;20874;-72
2022/08/02 12:50:17;;;;;;;3.50;2.27;;;33.10;74.30;;;;;;5072231;28;20975;-71
2022/08/02 12:52:44;;;;;;;3.37;2.30;;;33.30;73.30;;;;;;5072055;28;20449;-71
2022/08/02 12:55:18;;;;;;;3.07;2.23;;;33.20;73.20;;;;;;5071952;28;20481;-71
2022/08/02 12:57:56;;;;;;;3.47;2.67;;;33.10;73.40;;;;;;5054180;28;20726;-72
2022/08/02 13:00:25;;;;;;;2.83;2.10;;;33.00;73.90;;;;;;5071775;28;20453;-72
2022/08/02 13:02:59;;;;;;;2.60;2.20;;;32.90;71.40;;;;;;5070569;28;20453;-73
2022/08/02 13:05:29;;;;;;;2.80;2.30;;;32.80;71.40;;;;;;5071640;28;20282;-75
2022/08/02 13:07:57;;;;;;;2.80;2.23;;;32.70;71.50;;;;;;5071484;28;20472;-75
2022/08/02 13:10:25;;;;;;;2.63;2.10;;;32.50;73.00;;;;;;5071609;28;20449;-64